< < Back
Terminal Aerodrome Forecast


Current Version              Previous Versions:   1  2  3  4  5  6  7  8  9  

Terminal Aerodrome Forecast

264
FTUS42 KFFC 250500
TAFPDK
TAF
KPDK 250529Z 2506/2606 00000KT P6SM SKC
     FM251500 33007KT P6SM SKC
     FM260200 31004KT P6SM FEW025=

Latest METAR

255
SAUS70 KWBC 250500 RRG
MTRPDK
METAR KPDK 250453Z AUTO 28004KT 10SM CLR 11/06 A3003 RMK AO2 SLP166
T01060056 402280061 $


USA.gov is the U.S. government's official web portal to all federal, state and local government web resources and services.